Time;durP1;ratioP1;P1;durP2;ratioP2;P2;SDS_P1;SDS_P2;PMS_P1;PMS_P2;Temp;Humidity;BMP_temperature;BMP_pressure;BME280_temperature;BME280_humidity;BME280_pressure;Samples;Min_cycle;Max_cycle;Signal;HPM_P1;HPM_P2
2023/04/19 00:01:49;;;;;;;0.60;0.60;;;;;;;12.38;100.00;99805.66;5025792;28;20281;-70
2023/04/19 00:04:17;;;;;;;0.63;0.63;;;;;;;12.56;100.00;99815.25;5032453;28;20204;-70
2023/04/19 00:06:46;;;;;;;0.52;0.52;;;;;;;12.54;100.00;99806.59;4998317;28;20207;-70
2023/04/19 00:09:12;;;;;;;0.50;0.50;;;;;;;12.61;100.00;99805.72;5033019;28;20270;-70
2023/04/19 00:11:39;;;;;;;0.60;0.60;;;;;;;12.55;100.00;99797.06;5032769;28;20203;-70
2023/04/19 00:14:06;;;;;;;0.68;0.68;;;;;;;12.60;100.00;99808.31;4998100;28;20208;-70
2023/04/19 00:16:33;;;;;;;0.70;0.70;;;;;;;12.61;100.00;99808.34;4984104;28;20212;-71
2023/04/19 00:19:00;;;;;;;0.60;0.60;;;;;;;12.59;100.00;99809.19;5023381;28;20200;-70
2023/04/19 00:21:28;;;;;;;0.68;0.68;;;;;;;12.52;100.00;99804.84;5032098;28;20597;-70
2023/04/19 00:23:55;;;;;;;0.60;0.60;;;;;;;12.36;100.00;99812.59;5032913;28;20211;-70
2023/04/19 00:26:22;;;;;;;0.70;0.70;;;;;;;12.37;100.00;99814.34;5032542;28;20212;-70
2023/04/19 00:28:48;;;;;;;0.70;0.70;;;;;;;12.20;100.00;99805.59;5031998;28;20316;-71
2023/04/19 00:31:15;;;;;;;0.70;0.70;;;;;;;12.11;100.00;99794.28;5033102;28;20200;-70
2023/04/19 00:33:42;;;;;;;0.47;0.47;;;;;;;12.04;100.00;99798.59;5032507;28;20211;-71
2023/04/19 00:36:09;;;;;;;0.50;0.50;;;;;;;12.05;100.00;99796.88;5013636;28;20204;-70
2023/04/19 00:38:38;;;;;;;0.70;0.70;;;;;;;12.06;100.00;99796.88;5014124;28;20300;-70
2023/04/19 00:41:04;;;;;;;0.50;0.50;;;;;;;12.01;100.00;99798.59;5031697;28;20278;-70
2023/04/19 00:43:31;;;;;;;0.60;0.60;;;;;;;11.91;100.00;99791.63;5031972;28;20679;-71
2023/04/19 00:45:58;;;;;;;0.90;0.90;;;;;;;11.83;100.00;99799.38;5032075;28;20707;-70
2023/04/19 00:48:26;;;;;;;0.60;0.60;;;;;;;11.70;100.00;99794.06;5031588;28;20205;-70
2023/04/19 00:50:52;;;;;;;0.70;0.70;;;;;;;11.60;100.00;99776.69;5031702;28;20690;-71
2023/04/19 00:53:19;;;;;;;0.50;0.50;;;;;;;11.65;100.00;99794.03;5032479;28;20196;-70
2023/04/19 00:55:49;;;;;;;0.82;0.82;;;;;;;11.67;100.00;99789.72;4997043;28;20612;-70
2023/04/19 00:58:17;;;;;;;0.60;0.60;;;;;;;11.60;100.00;99787.06;5032188;28;20262;-70
2023/04/19 01:00:44;;;;;;;1.48;1.35;;;;;;;11.56;100.00;99773.19;4996913;28;20669;-70
2023/04/19 01:03:12;;;;;;;0.60;0.60;;;;;;;11.63;100.00;99779.31;5031905;28;20192;-70
2023/04/19 01:05:39;;;;;;;0.68;0.68;;;;;;;11.70;100.00;99786.28;5031709;28;20292;-71
2023/04/19 01:08:07;;;;;;;0.68;0.68;;;;;;;11.58;100.00;99786.19;5031776;28;20258;-71
2023/04/19 01:10:34;;;;;;;0.80;0.80;;;;;;;11.31;100.00;99776.50;4997078;28;20204;-70
2023/04/19 01:13:02;;;;;;;0.70;0.70;;;;;;;11.41;100.00;99786.94;5031483;28;20203;-70
2023/04/19 01:15:30;;;;;;;1.02;1.02;;;;;;;11.23;100.00;99752.22;5031956;28;20228;-71
2023/04/19 01:17:57;;;;;;;0.70;0.70;;;;;;;11.37;100.00;99771.38;5031643;28;20204;-70
2023/04/19 01:20:24;;;;;;;0.70;0.70;;;;;;;11.13;100.00;99766.84;5030556;28;20200;-71
2023/04/19 01:22:52;;;;;;;0.60;0.60;;;;;;;11.32;100.00;99776.50;5031155;28;20659;-70
2023/04/19 01:25:19;;;;;;;0.60;0.60;;;;;;;11.30;100.00;99770.47;4996822;28;20207;-70
2023/04/19 01:27:46;;;;;;;1.05;1.05;;;;;;;11.44;100.00;99774.00;5031196;28;20601;-71
2023/04/19 01:30:13;;;;;;;0.80;0.80;;;;;;;11.26;100.00;99776.47;5031561;28;20200;-70
2023/04/19 01:32:40;;;;;;;1.13;1.13;;;;;;;11.10;100.00;99764.22;5031002;28;20215;-71
2023/04/19 01:35:09;;;;;;;0.70;0.70;;;;;;;11.21;100.00;99760.00;5031212;28;20689;-70
2023/04/19 01:37:36;;;;;;;0.73;0.73;;;;;;;10.93;100.00;99700.97;4997033;28;20204;-70
2023/04/19 01:40:06;;;;;;;0.60;0.60;;;;;;;11.19;100.00;99751.34;5030922;28;20215;-71
2023/04/19 01:42:32;;;;;;;0.50;0.50;;;;;;;10.96;100.00;99729.53;5027483;28;20250;-70
2023/04/19 01:44:59;;;;;;;0.70;0.70;;;;;;;11.12;100.00;99746.09;5030932;28;20235;-70
2023/04/19 01:47:26;;;;;;;0.60;0.60;;;;;;;11.17;100.00;99742.66;5031261;28;20248;-70
2023/04/19 01:49:53;;;;;;;0.50;0.50;;;;;;;11.12;100.00;99718.44;5031337;28;20200;-71
2023/04/19 01:52:20;;;;;;;0.60;0.60;;;;;;;11.29;100.00;99742.75;5029790;28;20196;-70
2023/04/19 01:54:46;;;;;;;0.55;0.55;;;;;;;11.25;100.00;99737.53;5030943;28;20208;-70
2023/04/19 01:57:17;;;;;;;0.60;0.60;;;;;;;11.29;100.00;99737.56;5031189;28;20671;-70
2023/04/19 01:59:44;;;;;;;0.60;0.60;;;;;;;11.27;100.00;99733.22;5030932;28;20203;-70
2023/04/19 02:02:11;;;;;;;0.70;0.70;;;;;;;11.18;100.00;99730.56;5030941;28;20314;-70
2023/04/19 02:04:38;;;;;;;1.67;1.60;;;;;;;11.15;100.00;99721.03;5031058;28;20208;-70
2023/04/19 02:07:04;;;;;;;0.55;0.55;;;;;;;11.14;100.00;99727.06;5030783;28;20226;-70
2023/04/19 02:09:31;;;;;;;0.50;0.50;;;;;;;11.18;100.00;99731.44;5030784;28;20196;-70
2023/04/19 02:11:58;;;;;;;0.68;0.68;;;;;;;11.18;100.00;99726.25;5030622;28;20211;-71
2023/04/19 02:14:26;;;;;;;1.40;1.00;;;;;;;11.23;100.00;99731.47;5030993;28;20196;-71
2023/04/19 02:16:53;;;;;;;0.80;0.80;;;;;;;10.93;100.00;99711.34;5011880;28;20200;-71
2023/04/19 02:19:19;;;;;;;0.80;0.80;;;;;;;10.96;100.00;99716.56;5030691;28;20197;-71
2023/04/19 02:21:46;;;;;;;0.60;0.60;;;;;;;11.06;100.00;99744.31;5030392;28;20231;-71
2023/04/19 02:24:16;;;;;;;0.60;0.60;;;;;;;11.00;100.00;99725.25;5030510;28;20212;-70
2023/04/19 02:26:43;;;;;;;0.60;0.60;;;;;;;10.88;100.00;99713.03;5030951;28;20299;-70
2023/04/19 02:29:09;;;;;;;0.60;0.60;;;;;;;10.98;100.00;99730.44;5030743;28;20204;-71
2023/04/19 02:31:38;;;;;;;0.50;0.50;;;;;;;10.97;100.00;99728.69;5030270;28;20204;-71
2023/04/19 02:34:04;;;;;;;0.60;0.60;;;;;;;10.88;100.00;99726.88;5030221;28;20231;-71
2023/04/19 02:36:32;;;;;;;0.63;0.63;;;;;;;10.96;100.00;99726.94;5011804;28;20200;-71
2023/04/19 02:38:59;;;;;;;0.70;0.70;;;;;;;10.93;100.00;99727.78;5030427;28;20287;-71
2023/04/19 02:41:26;;;;;;;0.50;0.50;;;;;;;11.07;100.00;99720.09;5030282;28;20215;-71
2023/04/19 02:43:52;;;;;;;0.50;0.50;;;;;;;11.13;100.00;99714.94;5030302;28;20200;-71
2023/04/19 02:46:19;;;;;;;0.60;0.60;;;;;;;11.18;100.00;99728.84;5010709;28;20247;-70
2023/04/19 02:48:47;;;;;;;0.60;0.60;;;;;;;11.27;100.00;99728.88;5024204;28;20200;-71
2023/04/19 02:51:16;;;;;;;0.50;0.50;;;;;;;11.24;100.00;99722.81;5030444;28;20215;-71
2023/04/19 02:53:43;;;;;;;1.13;1.13;;;;;;;11.23;100.00;99736.66;5034223;28;20243;-70
2023/04/19 02:56:10;;;;;;;0.70;0.70;;;;;;;11.30;100.00;99733.25;5034294;28;20226;-71
2023/04/19 02:58:37;;;;;;;1.00;1.00;;;;;;;11.31;100.00;99724.59;5015323;28;20250;-71
2023/04/19 03:01:03;;;;;;;0.60;0.60;;;;;;;11.41;100.00;99739.38;5034213;28;20208;-71
2023/04/19 03:03:30;;;;;;;0.50;0.50;;;;;;;11.42;100.00;99738.50;5034229;28;20207;-71
2023/04/19 03:05:59;;;;;;;0.60;0.60;;;;;;;11.51;100.00;99737.69;5034086;28;20213;-71
2023/04/19 03:08:25;;;;;;;0.60;0.60;;;;;;;11.49;100.00;99744.59;5033940;28;20314;-70
2023/04/19 03:10:52;;;;;;;0.30;0.30;;;;;;;11.52;100.00;99742.03;5033654;28;20234;-70
2023/04/19 03:13:19;;;;;;;0.50;0.50;;;;;;;11.59;100.00;99743.81;5034305;28;20196;-70
2023/04/19 03:15:46;;;;;;;0.50;0.50;;;;;;;11.61;100.00;99742.94;5033524;28;20207;-70
2023/04/19 03:18:13;;;;;;;0.60;0.60;;;;;;;11.20;100.00;99670.03;5033072;28;20552;-72
2023/04/19 03:20:40;;;;;;;0.60;0.60;;;;;;;11.52;100.00;99731.66;5033689;28;20200;-72
2023/04/19 03:23:08;;;;;;;0.70;0.70;;;;;;;11.55;100.00;99723.88;5033883;28;20219;-72
2023/04/19 03:25:35;;;;;;;0.65;0.65;;;;;;;11.56;100.00;99749.00;5033816;28;20208;-71
2023/04/19 03:28:03;;;;;;;0.50;0.50;;;;;;;11.57;100.00;99748.09;5033490;28;20203;-72
2023/04/19 03:30:29;;;;;;;0.50;0.50;;;;;;;11.49;100.00;99747.19;5033957;28;20223;-72
2023/04/19 03:32:57;;;;;;;0.60;0.60;;;;;;;11.48;100.00;99748.06;5033869;28;20295;-71
2023/04/19 03:35:25;;;;;;;0.60;0.60;;;;;;;11.53;100.00;99755.00;5033799;28;20196;-72
2023/04/19 03:37:51;;;;;;;0.60;0.60;;;;;;;11.42;100.00;99734.19;5033655;28;20683;-71
2023/04/19 03:40:20;;;;;;;0.60;0.60;;;;;;;11.73;100.00;99749.97;5033917;28;20281;-71
2023/04/19 03:42:47;;;;;;;0.70;0.70;;;;;;;11.72;100.00;99753.41;5032848;28;20228;-71
2023/04/19 03:45:14;;;;;;;0.60;0.60;;;;;;;11.73;100.00;99755.16;5032978;28;20220;-71
2023/04/19 03:47:41;;;;;;;0.60;0.60;;;;;;;11.79;100.00;99760.38;5032932;28;20667;-71
2023/04/19 03:50:09;;;;;;;0.60;0.60;;;;;;;11.85;100.00;99756.06;5032838;28;20201;-71
2023/04/19 03:52:36;;;;;;;0.50;0.50;;;;;;;11.86;100.00;99751.75;4998486;28;20299;-71
2023/04/19 03:55:03;;;;;;;0.55;0.55;;;;;;;11.87;100.00;99756.97;5033528;28;20192;-71
2023/04/19 03:57:31;;;;;;;0.50;0.50;;;;;;;11.81;100.00;99758.66;5033406;28;20203;-71
2023/04/19 03:59:57;;;;;;;0.60;0.60;;;;;;;11.78;100.00;99759.50;5033106;28;20204;-70
2023/04/19 04:02:25;;;;;;;0.50;0.50;;;;;;;11.83;100.00;99764.72;5014919;28;20756;-71
2023/04/19 04:04:54;;;;;;;0.70;0.70;;;;;;;11.88;100.00;99755.22;5032275;28;20310;-72
2023/04/19 04:07:22;;;;;;;0.60;0.60;;;;;;;12.01;100.00;99762.22;5033364;28;20200;-71
2023/04/19 04:09:48;;;;;;;0.60;0.60;;;;;;;12.10;100.00;99767.44;5032945;28;20200;-71
2023/04/19 04:12:15;;;;;;;0.60;0.60;;;;;;;12.09;100.00;99739.75;5033328;28;20563;-70
2023/04/19 04:14:44;;;;;;;0.60;0.60;;;;;;;12.21;100.00;99768.34;5032835;28;20199;-71
2023/04/19 04:17:10;;;;;;;0.50;0.50;;;;;;;12.15;100.00;99765.75;5032920;28;20200;-69
2023/04/19 04:19:37;;;;;;;0.60;0.60;;;;;;;12.20;100.00;99761.41;5032674;28;20219;-71
2023/04/19 04:22:04;;;;;;;0.70;0.70;;;;;;;12.34;100.00;99771.88;5032528;28;20215;-70
2023/04/19 04:24:31;;;;;;;0.60;0.60;;;;;;;12.34;100.00;99772.72;5032761;28;20212;-72
2023/04/19 04:26:59;;;;;;;0.50;0.50;;;;;;;12.43;100.00;99770.16;4997946;28;20204;-71
2023/04/19 04:29:27;;;;;;;0.60;0.60;;;;;;;12.43;100.00;99777.94;5032257;28;20219;-71
2023/04/19 04:31:56;;;;;;;0.57;0.57;;;;;;;12.34;100.00;99766.66;5032271;28;20207;-74
2023/04/19 04:34:23;;;;;;;0.70;0.70;;;;;;;12.39;100.00;99778.81;5031034;28;20196;-70
2023/04/19 04:36:50;;;;;;;0.50;0.50;;;;;;;12.33;100.00;99776.19;5031851;28;20289;-71
2023/04/19 04:39:18;;;;;;;0.60;0.60;;;;;;;12.26;100.00;99778.75;5032263;28;20214;-72
2023/04/19 04:41:45;;;;;;;0.60;0.60;;;;;;;11.85;100.00;99729.22;5030157;28;20666;-72
2023/04/19 04:44:12;;;;;;;0.55;0.55;;;;;;;12.17;100.00;99778.72;5031206;28;20697;-72
2023/04/19 04:46:38;;;;;;;0.50;0.50;;;;;;;12.16;100.00;99793.47;5013547;28;20247;-72
2023/04/19 04:49:07;;;;;;;0.50;0.50;;;;;;;12.30;100.00;99781.38;5031852;28;20207;-72
2023/04/19 04:51:35;;;;;;;0.50;0.50;;;;;;;12.25;100.00;99780.50;5031728;28;20300;-72
2023/04/19 04:54:01;;;;;;;0.50;0.50;;;;;;;12.54;100.00;99736.38;5002047;28;20311;-72
2023/04/19 04:56:29;;;;;;;0.60;0.60;;;;;;;12.69;100.00;99771.94;5030204;28;20200;-73
2023/04/19 04:58:57;;;;;;;0.60;0.60;;;;;;;12.57;100.00;99779.72;5032206;28;20204;-71
2023/04/19 05:01:23;;;;;;;0.55;0.55;;;;;;;11.70;100.00;99646.88;5033282;28;20243;-75
2023/04/19 05:03:50;;;;;;;0.50;0.50;;;;;;;12.76;100.00;99776.28;5028448;28;20277;-71
2023/04/19 05:06:19;;;;;;;0.50;0.50;;;;;;;12.68;100.00;99791.00;5031492;28;20655;-70
2023/04/19 05:08:46;;;;;;;0.63;0.63;;;;;;;12.65;100.00;99799.69;5031839;28;20294;-70
2023/04/19 05:11:12;;;;;;;0.70;0.70;;;;;;;12.81;100.00;99797.94;5031879;28;20199;-70
2023/04/19 05:13:39;;;;;;;0.60;0.60;;;;;;;12.92;100.00;99788.44;5027318;28;20200;-71
2023/04/19 05:16:06;;;;;;;0.50;0.50;;;;;;;13.69;100.00;99766.72;5030342;28;20227;-73
2023/04/19 05:18:33;;;;;;;0.60;0.60;;;;;;;14.53;100.00;99738.53;5027916;28;20201;-72
2023/04/19 05:21:00;;;;;;;0.60;0.60;;;;;;;14.87;100.00;99740.03;5031296;28;20208;-72
2023/04/19 05:23:28;;;;;;;0.60;0.60;;;;;;;14.32;100.00;99807.31;5029996;28;20239;-71
2023/04/19 05:25:55;;;;;;;0.50;0.50;;;;;;;14.16;100.00;99824.75;4991193;28;20295;-71
2023/04/19 05:28:21;;;;;;;0.50;0.50;;;;;;;13.75;100.00;99810.97;5027940;28;20645;-71
2023/04/19 05:30:49;;;;;;;0.60;0.60;;;;;;;13.84;100.00;99805.75;5029514;28;20208;-71
2023/04/19 05:33:15;;;;;;;0.68;0.68;;;;;;;13.68;100.00;99801.44;5029899;28;20216;-71
2023/04/19 05:35:42;;;;;;;0.63;0.63;;;;;;;13.78;100.00;99810.97;5030818;28;20215;-71
2023/04/19 05:38:09;;;;;;;0.65;0.65;;;;;;;13.61;100.00;99812.75;5030745;28;20242;-71
2023/04/19 05:40:38;;;;;;;1.77;1.67;;;;;;;13.36;100.00;99797.16;5030803;28;20204;-71
2023/04/19 05:43:05;;;;;;;0.60;0.60;;;;;;;13.20;100.00;99807.53;5029998;28;20235;-71
2023/04/19 05:45:32;;;;;;;0.50;0.50;;;;;;;13.02;100.00;99808.38;5030417;28;20231;-71
2023/04/19 05:47:59;;;;;;;0.63;0.63;;;;;;;13.00;100.00;99806.66;5027338;28;20203;-71
2023/04/19 05:50:26;;;;;;;0.80;0.80;;;;;;;12.81;100.00;99782.34;5030491;28;20260;-71
2023/04/19 05:52:52;;;;;;;0.50;0.50;;;;;;;12.90;100.00;99800.59;5030422;28;20270;-71
2023/04/19 05:55:19;;;;;;;0.60;0.60;;;;;;;12.88;100.00;99797.09;5025152;28;20216;-70
2023/04/19 05:57:47;;;;;;;0.60;0.60;;;;;;;12.98;100.00;99791.06;5007212;28;20652;-70
2023/04/19 06:00:16;;;;;;;0.60;0.60;;;;;;;12.95;100.00;99793.63;5030300;28;20258;-72
2023/04/19 06:02:43;;;;;;;0.60;0.60;;;;;;;13.29;100.00;99800.63;4995288;28;20220;-72
2023/04/19 06:05:10;;;;;;;0.50;0.50;;;;;;;13.66;100.00;99790.16;5030485;28;20211;-71
2023/04/19 06:07:36;;;;;;;0.52;0.52;;;;;;;13.90;100.00;99797.91;5030850;28;20204;-70
2023/04/19 06:10:04;;;;;;;1.13;1.13;;;;;;;14.20;100.00;99821.25;5026463;28;20212;-70
2023/04/19 06:12:30;;;;;;;0.45;0.45;;;;;;;14.34;100.00;99811.66;5004351;28;20200;-70
2023/04/19 06:14:59;;;;;;;0.60;0.60;;;;;;;14.49;100.00;99817.69;5030625;28;20667;-70
2023/04/19 06:17:26;;;;;;;0.50;0.50;;;;;;;14.59;100.00;99804.56;5024324;28;20314;-70
2023/04/19 06:19:53;;;;;;;0.60;0.60;;;;;;;14.18;100.00;99754.34;5029100;28;20207;-71
2023/04/19 06:22:20;;;;;;;0.50;0.50;;;;;;;14.61;100.00;99802.84;5029151;28;20251;-72
2023/04/19 06:24:47;;;;;;;0.60;0.60;;;;;;;14.97;100.00;99821.75;5011006;28;20279;-72
2023/04/19 06:27:16;;;;;;;0.50;0.50;;;;;;;15.01;100.00;99824.34;5020208;28;20303;-71
2023/04/19 06:29:42;;;;;;;0.50;0.50;;;;;;;14.91;100.00;99822.63;5013730;28;20209;-70
2023/04/19 11:36:14;;;;;;;0.50;0.50;;;;;;;18.05;91.87;99777.47;5080719;27;20561;-70
2023/04/19 11:38:41;;;;;;;0.50;0.50;;;;;;;17.88;92.49;99779.59;5078743;28;20202;-71
2023/04/19 11:41:08;;;;;;;0.40;0.40;;;;;;;18.01;93.98;99752.22;5067281;28;20195;-71
2023/04/19 11:43:36;;;;;;;0.50;0.50;;;;;;;18.16;92.15;99772.00;5074384;28;20252;-72
2023/04/19 11:46:07;;;;;;;0.70;0.70;;;;;;;18.48;89.96;99740.69;5085037;28;20202;-71
2023/04/19 11:48:33;;;;;;;0.60;0.60;;;;;;;18.41;86.65;99767.13;5075779;28;20210;-72
2023/04/19 11:51:01;;;;;;;0.50;0.50;;;;;;;18.47;87.09;99765.25;5072137;28;20517;-70
2023/04/19 11:53:31;;;;;;;0.60;0.60;;;;;;;18.30;87.95;99754.22;5074713;28;20202;-69
2023/04/19 11:56:05;;;;;;;0.60;0.60;;;;;;;18.37;84.95;99757.59;5071798;28;20199;-70
2023/04/19 11:58:35;;;;;;;0.50;0.50;;;;;;;18.61;84.08;99757.94;5085303;28;20202;-70
2023/04/19 12:01:06;;;;;;;0.50;0.50;;;;;;;18.83;85.05;99753.06;5066362;28;20198;-70
2023/04/19 12:03:33;;;;;;;0.55;0.55;;;;;;;18.76;82.78;99733.09;5069203;28;20195;-70
2023/04/19 12:06:03;;;;;;;1.30;1.23;;;;;;;18.61;90.43;99746.56;5081479;28;20201;-70
2023/04/19 12:08:33;;;;;;;0.50;0.50;;;;;;;18.78;82.81;99745.28;5067407;28;20205;-70
2023/04/19 12:11:02;;;;;;;0.50;0.50;;;;;;;18.59;82.48;99687.97;5058965;28;20195;-70
2023/04/19 12:13:29;;;;;;;0.60;0.60;;;;;;;19.21;82.51;99736.34;5083782;28;20288;-71
2023/04/19 12:15:56;;;;;;;0.40;0.40;;;;;;;19.35;76.65;99743.88;5086287;28;20267;-68
2023/04/19 12:18:23;;;;;;;0.60;0.60;;;;;;;19.10;77.85;99728.72;5078758;28;20289;-70
2023/04/19 12:20:51;;;;;;;0.40;0.40;;;;;;;19.36;78.34;99733.31;5078380;28;20200;-69
2023/04/19 12:23:19;;;;;;;0.50;0.50;;;;;;;19.39;77.06;99690.31;5081962;28;20325;-70
2023/04/19 12:25:48;;;;;;;0.50;0.50;;;;;;;19.42;78.66;99729.69;5085713;28;20226;-69
2023/04/19 12:28:16;;;;;;;0.70;0.70;;;;;;;19.49;78.18;99718.97;5084013;28;20255;-70
2023/04/19 12:30:43;;;;;;;0.50;0.50;;;;;;;19.62;74.33;99701.94;5086772;28;20206;-70
2023/04/19 12:33:11;;;;;;;0.57;0.57;;;;;;;19.26;69.16;99727.41;5071667;28;20234;-70
2023/04/19 12:35:38;;;;;;;0.60;0.60;;;;;;;19.44;68.74;99714.75;5067657;28;20620;-70
2023/04/19 12:38:04;;;;;;;0.60;0.60;;;;;;;19.79;67.86;99712.00;5072101;28;20298;-69
2023/04/19 12:40:31;;;;;;;3.60;1.50;;;;;;;19.61;71.42;99713.38;5072046;28;20249;-69
2023/04/19 12:42:59;;;;;;;0.55;0.55;;;;;;;19.46;73.67;99705.03;5067987;28;20199;-70
2023/04/19 12:45:26;;;;;;;0.77;0.77;;;;;;;19.80;73.29;99698.78;5071766;28;20218;-69
2023/04/19 12:47:53;;;;;;;0.50;0.50;;;;;;;19.71;69.22;99695.56;5072380;28;20223;-71
2023/04/19 12:50:20;;;;;;;0.50;0.50;;;;;;;19.47;68.60;99680.47;5068083;28;20196;-72
2023/04/19 12:52:47;;;;;;;0.50;0.50;;;;;;;19.44;62.33;99706.88;5043936;28;20210;-71
2023/04/19 12:55:14;;;;;;;0.35;0.35;;;;;;;19.37;65.32;99695.59;5059424;28;20204;-70
2023/04/19 12:57:41;;;;;;;0.60;0.60;;;;;;;19.62;62.99;99690.59;5060194;28;20207;-71
2023/04/19 13:00:11;;;;;;;0.60;0.60;;;;;;;19.33;62.86;99605.41;5061582;28;20287;-74
2023/04/19 13:02:38;;;;;;;0.60;0.60;;;;;;;19.68;62.68;99667.59;5063832;28;20207;-74
2023/04/19 13:05:06;;;;;;;0.60;0.60;;;;;;;19.90;62.50;99665.22;5066992;28;20310;-72
2023/04/19 13:07:33;;;;;;;0.50;0.50;;;;;;;19.68;63.81;99669.34;5047797;28;20199;-71
2023/04/19 13:09:59;;;;;;;0.50;0.50;;;;;;;19.10;66.66;99681.41;5030877;28;20658;-70
2023/04/19 13:12:27;;;;;;;0.82;0.82;;;;;;;18.92;68.65;99647.75;5069279;28;20203;-72
2023/04/19 13:14:54;;;;;;;1.13;1.13;;;;;;;19.43;68.87;99678.84;5063881;28;20211;-71
2023/04/19 13:17:23;;;;;;;0.85;0.85;;;;;;;19.25;70.67;99659.13;5066935;28;20195;-71
2023/04/19 13:19:49;;;;;;;0.50;0.50;;;;;;;18.69;73.14;99650.94;5057147;28;20775;-72
2023/04/19 13:22:16;;;;;;;0.50;0.50;;;;;;;18.88;74.71;99666.22;5071810;28;20687;-72
2023/04/19 13:24:44;;;;;;;0.50;0.50;;;;;;;18.89;75.34;99666.22;5071023;28;20254;-71
2023/04/19 13:27:11;;;;;;;0.50;0.50;;;;;;;19.02;75.38;99657.09;5044163;28;20204;-71
2023/04/19 13:29:38;;;;;;;0.50;0.50;;;;;;;18.85;74.76;99664.56;5062359;28;20214;-70
2023/04/19 13:32:06;;;;;;;0.60;0.60;;;;;;;18.89;74.07;99660.97;5033168;28;20207;-71
2023/04/19 13:34:35;;;;;;;0.50;0.50;;;;;;;19.07;74.69;99644.72;5070178;28;20234;-70
2023/04/19 13:37:01;;;;;;;0.50;0.50;;;;;;;19.40;72.63;99653.47;5071462;28;20194;-71
2023/04/19 13:39:28;;;;;;;0.50;0.50;;;;;;;19.49;68.02;99652.34;5071128;28;20198;-72
2023/04/19 13:41:55;;;;;;;0.50;0.50;;;;;;;19.56;71.47;99638.13;5071353;28;20211;-69
2023/04/19 13:44:24;;;;;;;0.50;0.50;;;;;;;19.79;66.39;99651.50;5064668;28;20246;-69
2023/04/19 13:46:50;;;;;;;0.50;0.50;;;;;;;19.91;62.71;99642.34;5035765;28;20195;-69
2023/04/19 13:49:18;;;;;;;0.60;0.60;;;;;;;19.86;61.86;99650.41;5070609;28;20264;-71
2023/04/19 13:51:46;;;;;;;0.50;0.50;;;;;;;19.77;60.73;99642.78;5070815;28;20199;-71
2023/04/19 13:54:13;;;;;;;0.60;0.60;;;;;;;19.47;62.08;99622.63;5058150;28;20211;-70
2023/04/19 13:56:39;;;;;;;0.63;0.63;;;;;;;18.95;65.21;99634.50;5069876;28;20202;-72
2023/04/19 13:59:06;;;;;;;0.50;0.50;;;;;;;18.93;63.67;99651.22;5059230;28;20206;-72
2023/04/19 14:01:33;;;;;;;0.50;0.50;;;;;;;18.86;60.81;99628.66;5040808;28;20232;-74
2023/04/19 14:04:00;;;;;;;0.43;0.43;;;;;;;19.04;62.39;99639.56;5068564;28;20210;-72
2023/04/19 14:06:26;;;;;;;0.50;0.50;;;;;;;18.87;66.04;99625.97;5063122;28;20222;-71
2023/04/19 14:08:55;;;;;;;0.70;0.70;;;;;;;19.31;64.32;99633.53;5061826;28;20222;-73
2023/04/19 14:11:22;;;;;;;0.50;0.50;;;;;;;19.23;63.63;99589.94;5060658;28;20684;-72
2023/04/19 14:13:49;;;;;;;0.50;0.50;;;;;;;19.63;63.37;99635.28;5062826;28;20198;-71
2023/04/19 14:16:16;;;;;;;0.50;0.50;;;;;;;19.54;60.24;99622.41;5070981;28;20210;-73
2023/04/19 14:18:42;;;;;;;0.57;0.57;;;;;;;19.14;59.57;99614.75;5059115;28;20215;-72
2023/04/19 14:21:09;;;;;;;0.50;0.50;;;;;;;18.75;59.16;99608.78;5061862;28;20206;-71
2023/04/19 14:23:36;;;;;;;0.50;0.50;;;;;;;18.78;58.67;99639.34;5070002;28;20274;-72
2023/04/19 14:26:04;;;;;;;0.50;0.50;;;;;;;18.97;58.89;99637.97;5048202;28;20237;-71
2023/04/19 14:28:31;;;;;;;0.80;0.80;;;;;;;18.88;58.30;99630.31;5067715;28;20207;-70
2023/04/19 14:30:58;;;;;;;0.50;0.50;;;;;;;19.01;58.95;99634.38;5065377;28;20195;-71
2023/04/19 14:33:25;;;;;;;0.50;0.50;;;;;;;18.89;58.52;99626.81;5053556;28;20207;-74
2023/04/19 14:35:52;;;;;;;0.50;0.50;;;;;;;19.13;57.42;99631.41;5070413;28;20697;-71
2023/04/19 14:38:19;;;;;;;0.50;0.50;;;;;;;19.11;62.70;99630.59;5070389;28;20602;-75
2023/04/19 14:40:46;;;;;;;0.50;0.50;;;;;;;19.43;59.51;99623.63;5069673;28;20199;-74
2023/04/19 14:43:16;;;;;;;0.40;0.40;;;;;;;19.38;58.54;99622.84;5069482;28;20210;-74
2023/04/19 14:45:43;;;;;;;0.50;0.50;;;;;;;18.99;57.53;99616.91;5069214;28;20732;-74
2023/04/19 14:48:09;;;;;;;0.50;0.50;;;;;;;19.09;59.43;99631.53;5061016;28;20639;-74
2023/04/19 14:50:36;;;;;;;0.57;0.57;;;;;;;19.01;60.13;99629.13;5061605;28;20570;-73
2023/04/19 14:53:03;;;;;;;0.50;0.50;;;;;;;19.13;60.42;99615.63;5065584;28;20277;-74
2023/04/19 14:55:30;;;;;;;0.50;0.50;;;;;;;19.02;60.80;99627.31;5063202;28;20567;-73
2023/04/19 14:57:56;;;;;;;0.88;0.88;;;;;;;19.09;62.10;99631.53;5045088;28;20576;-74
2023/04/19 15:00:25;;;;;;;0.50;0.50;;;;;;;19.09;66.32;99627.13;5065497;28;20626;-72
2023/04/19 15:02:51;;;;;;;2.05;1.10;;;;;;;19.40;65.20;99626.31;5062755;28;20273;-73
2023/04/19 15:05:18;;;;;;;0.60;0.60;;;;;;;19.75;63.94;99624.41;5062106;28;20223;-72
2023/04/19 15:07:45;;;;;;;0.60;0.60;;;;;;;19.91;61.65;99623.94;5068747;28;20202;-73
2023/04/19 15:10:12;;;;;;;0.50;0.50;;;;;;;19.65;64.64;99637.88;5050675;28;20203;-70
2023/04/19 15:12:39;;;;;;;0.40;0.40;;;;;;;19.21;65.96;99645.22;5018163;28;20268;-71
2023/04/19 15:15:07;;;;;;;0.60;0.60;;;;;;;19.06;68.05;99642.97;5065587;28;20664;-72
2023/04/19 15:17:36;;;;;;;0.60;0.60;;;;;;;19.13;68.29;99644.53;5045515;28;20203;-76
2023/04/19 15:20:04;;;;;;;0.50;0.50;;;;;;;18.96;68.54;99631.00;5064384;28;20734;-74
2023/04/19 15:22:32;;;;;;;0.50;0.50;;;;;;;18.92;69.21;99642.47;5063031;28;20294;-73
2023/04/19 15:25:00;;;;;;;0.50;0.50;;;;;;;18.87;69.63;99631.22;5072337;28;20230;-74
2023/04/19 15:27:27;;;;;;;0.50;0.50;;;;;;;18.90;70.59;99652.19;5054380;28;20204;-71
2023/04/19 15:29:54;;;;;;;0.50;0.50;;;;;;;18.12;72.47;99571.78;5025982;28;20198;-73
2023/04/19 15:32:21;;;;;;;0.60;0.60;;;;;;;18.57;74.99;99643.38;5057350;28;20214;-74
2023/04/19 15:34:49;;;;;;;0.50;0.50;;;;;;;18.62;75.20;99645.91;5054527;28;20230;-70
2023/04/19 15:37:16;;;;;;;0.63;0.63;;;;;;;18.68;76.94;99645.75;5064287;28;20194;-72
2023/04/19 15:39:43;;;;;;;0.50;0.50;;;;;;;18.62;76.18;99640.66;5033778;28;20215;-70
2023/04/19 15:42:10;;;;;;;0.50;0.50;;;;;;;18.69;75.98;99645.69;5069675;28;20674;-72
2023/04/19 15:44:37;;;;;;;0.50;0.50;;;;;;;18.58;77.46;99645.09;5069391;28;20199;-71
2023/04/19 15:47:03;;;;;;;0.50;0.50;;;;;;;18.51;79.30;99647.91;5056281;28;20238;-72
2023/04/19 15:49:30;;;;;;;0.50;0.50;;;;;;;18.45;81.16;99648.00;5065495;28;20791;-71
2023/04/19 15:51:58;;;;;;;0.60;0.60;;;;;;;18.33;80.74;99638.69;5060276;28;20731;-71
2023/04/19 15:54:27;;;;;;;0.50;0.50;;;;;;;18.11;81.75;99642.69;5063618;28;20260;-72
2023/04/19 15:56:54;;;;;;;0.60;0.60;;;;;;;18.29;82.00;99643.16;5069177;28;20637;-72
2023/04/19 15:59:21;;;;;;;0.50;0.50;;;;;;;18.42;80.17;99637.59;5057163;28;20203;-72
2023/04/19 16:01:48;;;;;;;0.60;0.60;;;;;;;18.66;78.87;99642.25;5068958;28;20202;-75
2023/04/19 16:04:15;;;;;;;0.50;0.50;;;;;;;18.67;84.23;99642.25;5068200;28;20614;-71
2023/04/19 16:06:42;;;;;;;0.60;0.60;;;;;;;18.52;79.46;99623.38;5067223;28;20616;-70
2023/04/19 16:09:10;;;;;;;0.50;0.50;;;;;;;18.79;78.05;99646.34;5038569;28;20235;-71
2023/04/19 16:11:37;;;;;;;0.52;0.52;;;;;;;18.79;78.68;99639.31;5065722;28;20282;-72
2023/04/19 16:14:04;;;;;;;0.50;0.50;;;;;;;18.74;93.17;99632.44;5063917;28;20281;-74
2023/04/19 16:16:33;;;;;;;0.50;0.50;;;;;;;18.93;95.75;99638.97;5069627;28;20205;-71
2023/04/19 16:19:00;;;;;;;0.50;0.50;;;;;;;18.95;84.44;99645.03;5072643;28;20597;-72
2023/04/19 16:21:27;;;;;;;0.50;0.50;;;;;;;18.91;83.39;99640.75;5071007;28;20195;-73
2023/04/19 16:23:54;;;;;;;0.60;0.60;;;;;;;18.93;82.37;99645.97;5060786;28;20280;-72
2023/04/19 16:26:23;;;;;;;0.50;0.50;;;;;;;18.91;84.53;99637.25;5069756;28;20608;-72
2023/04/19 16:28:50;;;;;;;0.50;0.50;;;;;;;18.86;83.34;99644.41;5070393;28;20213;-73
2023/04/19 16:31:17;;;;;;;0.60;0.60;;;;;;;18.72;82.20;99632.50;5067505;28;20202;-72
2023/04/19 16:33:44;;;;;;;0.50;0.50;;;;;;;18.63;84.20;99644.97;5058594;28;20658;-73